DAL2378 YSSY-KLAX
Flight info
| Callsign | DAL2378 |
|---|---|
| Flight time | N/A |
| Altitude | 31000 |
| Route | DIPSO G595 SOTKI DCT UBLIN A579 PUPEX/N0497F330 A579 TANIL DCT NN B581 WOOBY DCT QUIGG/N0488F350 B577 BELAN/N0478F370 B577 FICKY GOATZ2 |
| Aircraft | B77W/H-SDE1E2E3FGHIJ2J3J4J5M1RWXY/LB1D1 |
Departure
| Time | 2026-05-07 08:40 |
|---|---|
| Airport | Sydney Kingsford Smith International Airport (YSSY) |
Arrival
| Time | N/A |
|---|---|
| Airport | Los Angeles International Airport (KLAX) |
| Time | Latitude | Longitude | Altitude | Speed | Heading |
|---|---|---|---|---|---|
| 2026-05-07 08:20 | -33.93257 | 151.16810 | 98 ft | 0 kts | 298° |
| 2026-05-07 08:28 | -33.93258 | 151.16811 | 7 ft | 1 kts | 298° |
| 2026-05-07 08:28 | -33.93264 | 151.16828 | 12 ft | 3 kts | 294° |
| 2026-05-07 08:28 | -33.93272 | 151.16850 | 31 ft | 3 kts | 288° |
| 2026-05-07 08:28 | -33.93277 | 151.16874 | 31 ft | 3 kts | 276° |
| 2026-05-07 08:29 | -33.93278 | 151.16897 | 31 ft | 2 kts | 266° |
| 2026-05-07 08:29 | -33.93276 | 151.16919 | 31 ft | 3 kts | 250° |
| 2026-05-07 08:29 | -33.93267 | 151.16938 | 31 ft | 3 kts | 218° |
| 2026-05-07 08:29 | -33.93250 | 151.16950 | 31 ft | 3 kts | 199° |
| 2026-05-07 08:30 | -33.93232 | 151.16957 | 31 ft | 2 kts | 204° |
| 2026-05-07 08:30 | -33.93224 | 151.16962 | 31 ft | 1 kts | 207° |
| 2026-05-07 08:30 | -33.93223 | 151.16962 | 31 ft | 0 kts | 207° |
| 2026-05-07 08:32 | -33.93253 | 151.16944 | 31 ft | 13 kts | 207° |
| 2026-05-07 08:32 | -33.93330 | 151.16899 | 30 ft | 12 kts | 202° |
| 2026-05-07 08:32 | -33.93414 | 151.16898 | 28 ft | 12 kts | 167° |
| 2026-05-07 08:32 | -33.93489 | 151.16939 | 28 ft | 12 kts | 131° |
| 2026-05-07 08:33 | -33.93508 | 151.17036 | 30 ft | 12 kts | 103° |
| 2026-05-07 08:33 | -33.93561 | 151.17110 | 29 ft | 12 kts | 150° |
| 2026-05-07 08:33 | -33.93643 | 151.17138 | 28 ft | 12 kts | 169° |
| 2026-05-07 08:33 | -33.93792 | 151.17178 | 22 ft | 26 kts | 167° |
| 2026-05-07 08:34 | -33.93924 | 151.17215 | 25 ft | 14 kts | 153° |
| 2026-05-07 08:34 | -33.93948 | 151.17318 | 27 ft | 14 kts | 80° |
| 2026-05-07 08:34 | -33.93925 | 151.17430 | 26 ft | 14 kts | 74° |
| 2026-05-07 08:34 | -33.93907 | 151.17508 | 26 ft | 7 kts | 73° |
| 2026-05-07 08:35 | -33.93877 | 151.17637 | 24 ft | 23 kts | 75° |
| 2026-05-07 08:35 | -33.93838 | 151.17807 | 27 ft | 19 kts | 73° |
| 2026-05-07 08:35 | -33.93801 | 151.17953 | 33 ft | 17 kts | 73° |
| 2026-05-07 08:35 | -33.93768 | 151.18090 | 35 ft | 17 kts | 74° |
| 2026-05-07 08:36 | -33.93737 | 151.18225 | 35 ft | 17 kts | 75° |
| 2026-05-07 08:36 | -33.93706 | 151.18362 | 35 ft | 17 kts | 73° |
| 2026-05-07 08:36 | -33.93674 | 151.18500 | 35 ft | 17 kts | 75° |
| 2026-05-07 08:36 | -33.93653 | 151.18599 | 35 ft | 9 kts | 75° |
| 2026-05-07 08:37 | -33.93636 | 151.18670 | 35 ft | 9 kts | 72° |
| 2026-05-07 08:37 | -33.93618 | 151.18740 | 35 ft | 9 kts | 73° |
| 2026-05-07 08:37 | -33.93601 | 151.18811 | 35 ft | 9 kts | 76° |
| 2026-05-07 08:37 | -33.93605 | 151.18883 | 34 ft | 9 kts | 119° |
| 2026-05-07 08:38 | -33.93660 | 151.18944 | 29 ft | 12 kts | 158° |
| 2026-05-07 08:38 | -33.93728 | 151.18968 | 29 ft | 8 kts | 173° |
| 2026-05-07 08:38 | -33.93766 | 151.18923 | 30 ft | 8 kts | 244° |
| 2026-05-07 08:38 | -33.93773 | 151.18901 | 30 ft | 0 kts | 250° |
| 2026-05-07 08:39 | -33.93793 | 151.18827 | 30 ft | 36 kts | 252° |
| 2026-05-07 08:39 | -33.93931 | 151.18231 | 32 ft | 109 kts | 255° |
| 2026-05-07 08:39 | -33.94201 | 151.17106 | 41 ft | 170 kts | 255° |
| 2026-05-07 08:39 | -33.94514 | 151.15645 | 577 ft | 184 kts | 256° |
| 2026-05-07 08:40 | -33.94840 | 151.14110 | 1448 ft | 195 kts | 255° |
| 2026-05-07 08:40 | -33.95150 | 151.12529 | 2070 ft | 190 kts | 255° |
| 2026-05-07 08:40 | -33.95445 | 151.11027 | 2537 ft | 178 kts | 255° |
| 2026-05-07 08:40 | -33.95707 | 151.09636 | 2965 ft | 163 kts | 255° |
| 2026-05-07 08:41 | -33.95949 | 151.08327 | 3134 ft | 160 kts | 255° |
| 2026-05-07 08:41 | -33.96198 | 151.06999 | 3107 ft | 166 kts | 255° |
| 2026-05-07 08:41 | -33.96468 | 151.05585 | 2980 ft | 183 kts | 255° |
| 2026-05-07 08:41 | -33.96775 | 151.03988 | 2741 ft | 206 kts | 259° |
| 2026-05-07 08:42 | -33.96648 | 151.02191 | 2573 ft | 231 kts | 289° |
| 2026-05-07 08:42 | -33.95662 | 151.00689 | 2702 ft | 239 kts | 317° |
| 2026-05-07 08:42 | -33.94278 | 150.99613 | 3145 ft | 235 kts | 319° |
| 2026-05-07 08:42 | -33.92879 | 150.98553 | 3505 ft | 235 kts | 319° |
| 2026-05-07 08:43 | -33.91452 | 150.97642 | 3789 ft | 242 kts | 337° |
| 2026-05-07 08:43 | -33.89684 | 150.97478 | 3765 ft | 269 kts | 0° |
| 2026-05-07 08:43 | -33.87776 | 150.97802 | 3747 ft | 280 kts | 2° |
| 2026-05-07 08:43 | -33.85874 | 150.98157 | 3817 ft | 276 kts | 2° |
| 2026-05-07 08:44 | -33.83974 | 150.98516 | 4154 ft | 276 kts | 2° |
| 2026-05-07 08:44 | -33.82092 | 150.98879 | 4597 ft | 272 kts | 2° |
| 2026-05-07 08:44 | -33.80229 | 150.99237 | 4997 ft | 269 kts | 3° |
| 2026-05-07 08:44 | -33.78393 | 150.99584 | 5318 ft | 268 kts | 3° |
| 2026-05-07 08:45 | -33.76531 | 150.99924 | 5494 ft | 273 kts | 3° |
| 2026-05-07 08:45 | -33.74638 | 151.00257 | 5703 ft | 276 kts | 3° |
| 2026-05-07 08:45 | -33.72739 | 151.00578 | 6045 ft | 274 kts | 3° |
| 2026-05-07 08:45 | -33.70900 | 151.01129 | 6201 ft | 278 kts | 30° |
| 2026-05-07 08:46 | -33.69464 | 151.02721 | 6058 ft | 290 kts | 65° |
| 2026-05-07 08:46 | -33.68950 | 151.05017 | 5894 ft | 291 kts | 102° |
| 2026-05-07 08:46 | -33.69521 | 151.07255 | 6007 ft | 277 kts | 127° |
| 2026-05-07 08:46 | -33.70325 | 151.09402 | 6059 ft | 290 kts | 115° |
| 2026-05-07 08:47 | -33.70890 | 151.11742 | 6059 ft | 293 kts | 111° |
| 2026-05-07 08:47 | -33.71383 | 151.14140 | 6055 ft | 296 kts | 110° |
| 2026-05-07 08:47 | -33.71861 | 151.16538 | 6212 ft | 292 kts | 110° |
| 2026-05-07 08:47 | -33.72335 | 151.18889 | 6686 ft | 287 kts | 110° |
| 2026-05-07 08:48 | -33.72810 | 151.21210 | 7135 ft | 285 kts | 111° |
| 2026-05-07 08:48 | -33.73283 | 151.23509 | 7539 ft | 281 kts | 111° |
| 2026-05-07 08:48 | -33.73749 | 151.25769 | 7951 ft | 275 kts | 111° |
| 2026-05-07 08:48 | -33.74208 | 151.27968 | 8356 ft | 268 kts | 112° |
| 2026-05-07 08:49 | -33.74658 | 151.30123 | 8628 ft | 266 kts | 112° |
| 2026-05-07 08:49 | -33.75118 | 151.32303 | 8669 ft | 273 kts | 112° |
| 2026-05-07 08:49 | -33.75593 | 151.34542 | 8743 ft | 279 kts | 111° |
| 2026-05-07 08:49 | -33.76073 | 151.36824 | 8852 ft | 283 kts | 111° |
| 2026-05-07 08:50 | -33.76546 | 151.39088 | 9088 ft | 281 kts | 111° |
| 2026-05-07 08:50 | -33.77017 | 151.41355 | 9352 ft | 279 kts | 111° |
| 2026-05-07 08:50 | -33.77491 | 151.43624 | 9492 ft | 281 kts | 111° |
| 2026-05-07 08:50 | -33.77972 | 151.45915 | 9582 ft | 285 kts | 111° |
| 2026-05-07 08:51 | -33.78465 | 151.48265 | 9586 ft | 295 kts | 111° |
| 2026-05-07 08:51 | -33.78976 | 151.50695 | 9581 ft | 305 kts | 110° |
| 2026-05-07 08:51 | -33.79505 | 151.53219 | 9579 ft | 317 kts | 110° |
| 2026-05-07 08:51 | -33.80052 | 151.55836 | 9574 ft | 329 kts | 110° |
| 2026-05-07 08:52 | -33.80620 | 151.58558 | 9564 ft | 343 kts | 110° |
| 2026-05-07 08:52 | -33.81210 | 151.61394 | 9564 ft | 356 kts | 109° |
| 2026-05-07 08:52 | -33.81821 | 151.64339 | 9672 ft | 366 kts | 109° |
| 2026-05-07 08:52 | -33.82428 | 151.67301 | 10211 ft | 361 kts | 109° |
| 2026-05-07 08:53 | -33.82820 | 151.69225 | 10618 ft | 356 kts | 109° |
| 2026-05-07 08:53 | -33.83404 | 151.72082 | 11194 ft | 348 kts | 109° |
| 2026-05-07 08:53 | -33.83974 | 151.74866 | 11797 ft | 338 kts | 110° |
| 2026-05-07 08:53 | -33.84529 | 151.77574 | 12393 ft | 327 kts | 109° |
| 2026-05-07 08:54 | -33.85062 | 151.80173 | 12977 ft | 314 kts | 109° |
| 2026-05-07 08:54 | -33.85578 | 151.82686 | 13311 ft | 311 kts | 109° |
| 2026-05-07 08:54 | -33.86115 | 151.85267 | 13159 ft | 321 kts | 109° |
| 2026-05-07 08:54 | -33.86660 | 151.87901 | 13163 ft | 329 kts | 109° |
| 2026-05-07 08:55 | -33.87217 | 151.90600 | 13149 ft | 337 kts | 109° |
| 2026-05-07 08:55 | -33.87787 | 151.93376 | 13147 ft | 346 kts | 108° |
| 2026-05-07 08:55 | -33.88363 | 151.96204 | 13303 ft | 348 kts | 108° |
| 2026-05-07 08:55 | -33.88933 | 151.99012 | 13678 ft | 343 kts | 107° |
| 2026-05-07 08:56 | -33.89489 | 152.01749 | 13952 ft | 340 kts | 109° |
| 2026-05-07 08:56 | -33.90048 | 152.04488 | 14265 ft | 334 kts | 108° |
| 2026-05-07 08:56 | -33.90508 | 152.07209 | 14544 ft | 330 kts | 101° |
| 2026-05-07 08:56 | -33.90714 | 152.09934 | 14854 ft | 324 kts | 95° |
| 2026-05-07 08:57 | -33.90735 | 152.12631 | 15033 ft | 321 kts | 92° |
| 2026-05-07 08:57 | -33.90694 | 152.15327 | 15206 ft | 319 kts | 91° |
| 2026-05-07 08:57 | -33.90641 | 152.18010 | 15254 ft | 325 kts | 90° |
| 2026-05-07 08:57 | -33.90591 | 152.20779 | 15213 ft | 334 kts | 91° |
| 2026-05-07 08:58 | -33.90547 | 152.23609 | 15213 ft | 342 kts | 91° |
| 2026-05-07 08:58 | -33.90508 | 152.26513 | 15227 ft | 351 kts | 91° |
| 2026-05-07 08:58 | -33.90472 | 152.29498 | 15204 ft | 362 kts | 91° |
| 2026-05-07 08:58 | -33.90437 | 152.32573 | 15217 ft | 372 kts | 91° |
| 2026-05-07 08:59 | -33.90404 | 152.35693 | 15206 ft | 383 kts | 91° |
| 2026-05-07 08:59 | -33.90370 | 152.38935 | 15285 ft | 389 kts | 91° |
| 2026-05-07 08:59 | -33.90335 | 152.42177 | 15706 ft | 386 kts | 91° |
| 2026-05-07 08:59 | -33.90301 | 152.45398 | 16109 ft | 383 kts | 91° |
| 2026-05-07 09:00 | -33.90266 | 152.48592 | 16504 ft | 380 kts | 91° |
| 2026-05-07 09:00 | -33.90232 | 152.51754 | 16920 ft | 376 kts | 91° |
| 2026-05-07 09:00 | -33.90199 | 152.54889 | 17329 ft | 372 kts | 89° |
| 2026-05-07 09:00 | -33.90165 | 152.57985 | 17726 ft | 366 kts | 89° |